sensor_id;sensor_type;location;lat;lon;timestamp;P1;durP1;ratioP1;P2;durP2;ratioP2
71715;SDS011;59568;52.128;5.434;2023-10-08T00:02:24;9.27;;;2.50;;
71715;SDS011;59568;52.128;5.434;2023-10-08T00:04:55;8.90;;;2.08;;
71715;SDS011;59568;52.128;5.434;2023-10-08T00:07:22;10.87;;;2.20;;
71715;SDS011;59568;52.128;5.434;2023-10-08T00:09:50;7.40;;;2.20;;
71715;SDS011;59568;52.128;5.434;2023-10-08T00:12:18;7.75;;;2.42;;
71715;SDS011;59568;52.128;5.434;2023-10-08T00:14:48;6.82;;;2.20;;
71715;SDS011;59568;52.128;5.434;2023-10-08T00:17:21;8.57;;;2.00;;
71715;SDS011;59568;52.128;5.434;2023-10-08T00:19:48;12.00;;;2.60;;
71715;SDS011;59568;52.128;5.434;2023-10-08T00:22:19;13.48;;;2.47;;
71715;SDS011;59568;52.128;5.434;2023-10-08T00:24:46;7.97;;;2.00;;
71715;SDS011;59568;52.128;5.434;2023-10-08T00:27:16;11.52;;;2.33;;
71715;SDS011;59568;52.128;5.434;2023-10-08T00:29:44;11.70;;;1.80;;
71715;SDS011;59568;52.128;5.434;2023-10-08T00:32:11;11.47;;;3.13;;
71715;SDS011;59568;52.128;5.434;2023-10-08T00:34:40;10.75;;;2.05;;
71715;SDS011;59568;52.128;5.434;2023-10-08T00:37:10;11.25;;;2.03;;
71715;SDS011;59568;52.128;5.434;2023-10-08T00:39:41;8.55;;;2.15;;
71715;SDS011;59568;52.128;5.434;2023-10-08T00:42:08;13.70;;;2.22;;
71715;SDS011;59568;52.128;5.434;2023-10-08T00:44:36;9.77;;;1.90;;
71715;SDS011;59568;52.128;5.434;2023-10-08T00:47:18;8.38;;;2.13;;
71715;SDS011;59568;52.128;5.434;2023-10-08T00:49:48;7.53;;;2.05;;
71715;SDS011;59568;52.128;5.434;2023-10-08T00:52:21;9.15;;;2.33;;
71715;SDS011;59568;52.128;5.434;2023-10-08T00:55:07;9.05;;;1.77;;
71715;SDS011;59568;52.128;5.434;2023-10-08T00:57:47;11.43;;;2.50;;
71715;SDS011;59568;52.128;5.434;2023-10-08T01:00:16;13.05;;;2.78;;
71715;SDS011;59568;52.128;5.434;2023-10-08T01:02:47;10.45;;;1.90;;
71715;SDS011;59568;52.128;5.434;2023-10-08T01:05:21;11.10;;;2.40;;
71715;SDS011;59568;52.128;5.434;2023-10-08T01:08:09;9.80;;;2.00;;
71715;SDS011;59568;52.128;5.434;2023-10-08T01:10:40;7.97;;;1.77;;
71715;SDS011;59568;52.128;5.434;2023-10-08T01:13:10;8.52;;;2.13;;
71715;SDS011;59568;52.128;5.434;2023-10-08T01:15:57;9.60;;;2.03;;
71715;SDS011;59568;52.128;5.434;2023-10-08T01:18:24;6.60;;;2.00;;
71715;SDS011;59568;52.128;5.434;2023-10-08T01:20:58;10.02;;;1.77;;
71715;SDS011;59568;52.128;5.434;2023-10-08T01:23:38;6.60;;;1.80;;
71715;SDS011;59568;52.128;5.434;2023-10-08T01:26:05;9.88;;;2.25;;
71715;SDS011;59568;52.128;5.434;2023-10-08T01:28:39;11.75;;;2.78;;
71715;SDS011;59568;52.128;5.434;2023-10-08T01:31:06;9.35;;;2.22;;
71715;SDS011;59568;52.128;5.434;2023-10-08T01:33:34;7.13;;;1.65;;
71715;SDS011;59568;52.128;5.434;2023-10-08T01:36:13;7.67;;;1.90;;
71715;SDS011;59568;52.128;5.434;2023-10-08T01:38:40;12.48;;;2.42;;
71715;SDS011;59568;52.128;5.434;2023-10-08T01:41:15;10.10;;;2.30;;
71715;SDS011;59568;52.128;5.434;2023-10-08T01:43:46;8.13;;;2.00;;
71715;SDS011;59568;52.128;5.434;2023-10-08T01:46:14;7.00;;;2.00;;
71715;SDS011;59568;52.128;5.434;2023-10-08T01:48:42;8.17;;;2.00;;
71715;SDS011;59568;52.128;5.434;2023-10-08T01:51:12;10.02;;;1.90;;
71715;SDS011;59568;52.128;5.434;2023-10-08T01:53:52;7.30;;;2.30;;
71715;SDS011;59568;52.128;5.434;2023-10-08T01:56:24;10.85;;;2.08;;
71715;SDS011;59568;52.128;5.434;2023-10-08T01:58:51;9.48;;;2.20;;
71715;SDS011;59568;52.128;5.434;2023-10-08T02:01:21;7.67;;;1.63;;
71715;SDS011;59568;52.128;5.434;2023-10-08T02:03:48;9.20;;;1.98;;
71715;SDS011;59568;52.128;5.434;2023-10-08T02:06:16;9.73;;;1.88;;
71715;SDS011;59568;52.128;5.434;2023-10-08T02:08:43;6.78;;;1.83;;
71715;SDS011;59568;52.128;5.434;2023-10-08T02:11:10;9.82;;;2.67;;
71715;SDS011;59568;52.128;5.434;2023-10-08T02:13:37;8.07;;;1.90;;
71715;SDS011;59568;52.128;5.434;2023-10-08T02:16:04;6.90;;;1.80;;
71715;SDS011;59568;52.128;5.434;2023-10-08T02:18:31;8.05;;;2.08;;
71715;SDS011;59568;52.128;5.434;2023-10-08T02:20:59;8.35;;;1.77;;
71715;SDS011;59568;52.128;5.434;2023-10-08T02:23:26;8.25;;;2.17;;
71715;SDS011;59568;52.128;5.434;2023-10-08T02:25:54;7.17;;;1.77;;
71715;SDS011;59568;52.128;5.434;2023-10-08T02:28:21;8.80;;;2.42;;
71715;SDS011;59568;52.128;5.434;2023-10-08T02:30:51;5.93;;;2.10;;
71715;SDS011;59568;52.128;5.434;2023-10-08T02:33:17;7.15;;;2.38;;
71715;SDS011;59568;52.128;5.434;2023-10-08T02:35:45;11.43;;;2.10;;
71715;SDS011;59568;52.128;5.434;2023-10-08T02:38:14;9.60;;;2.33;;
71715;SDS011;59568;52.128;5.434;2023-10-08T02:40:48;4.95;;;1.67;;
71715;SDS011;59568;52.128;5.434;2023-10-08T02:43:15;7.35;;;1.90;;
71715;SDS011;59568;52.128;5.434;2023-10-08T02:45:44;10.07;;;2.42;;
71715;SDS011;59568;52.128;5.434;2023-10-08T02:48:17;8.55;;;2.55;;
71715;SDS011;59568;52.128;5.434;2023-10-08T02:50:45;9.47;;;2.10;;
71715;SDS011;59568;52.128;5.434;2023-10-08T02:53:13;12.00;;;2.22;;
71715;SDS011;59568;52.128;5.434;2023-10-08T02:55:45;6.85;;;1.77;;
71715;SDS011;59568;52.128;5.434;2023-10-08T02:58:13;7.97;;;2.08;;
71715;SDS011;59568;52.128;5.434;2023-10-08T03:00:42;6.95;;;2.35;;
71715;SDS011;59568;52.128;5.434;2023-10-08T03:03:10;7.63;;;2.17;;
71715;SDS011;59568;52.128;5.434;2023-10-08T03:05:46;7.05;;;2.45;;
71715;SDS011;59568;52.128;5.434;2023-10-08T03:08:18;9.10;;;1.80;;
71715;SDS011;59568;52.128;5.434;2023-10-08T03:10:50;5.78;;;1.83;;
71715;SDS011;59568;52.128;5.434;2023-10-08T03:13:29;5.10;;;2.00;;
71715;SDS011;59568;52.128;5.434;2023-10-08T03:15:56;13.40;;;2.63;;
71715;SDS011;59568;52.128;5.434;2023-10-08T03:18:29;9.30;;;1.80;;
71715;SDS011;59568;52.128;5.434;2023-10-08T03:21:04;6.72;;;2.28;;
71715;SDS011;59568;52.128;5.434;2023-10-08T03:23:50;15.57;;;2.40;;
71715;SDS011;59568;52.128;5.434;2023-10-08T03:26:18;7.53;;;2.33;;
71715;SDS011;59568;52.128;5.434;2023-10-08T03:28:59;6.73;;;1.90;;
71715;SDS011;59568;52.128;5.434;2023-10-08T03:31:31;8.45;;;2.15;;
71715;SDS011;59568;52.128;5.434;2023-10-08T03:34:19;6.28;;;2.35;;
71715;SDS011;59568;52.128;5.434;2023-10-08T03:36:47;8.35;;;2.17;;
71715;SDS011;59568;52.128;5.434;2023-10-08T03:39:16;4.95;;;1.95;;
71715;SDS011;59568;52.128;5.434;2023-10-08T03:41:46;8.33;;;2.33;;
71715;SDS011;59568;52.128;5.434;2023-10-08T03:44:25;8.48;;;2.22;;
71715;SDS011;59568;52.128;5.434;2023-10-08T03:46:56;8.55;;;2.13;;
71715;SDS011;59568;52.128;5.434;2023-10-08T03:49:23;8.00;;;2.38;;
71715;SDS011;59568;52.128;5.434;2023-10-08T03:51:50;9.32;;;2.42;;
71715;SDS011;59568;52.128;5.434;2023-10-08T03:54:21;8.40;;;2.23;;
71715;SDS011;59568;52.128;5.434;2023-10-08T03:57:02;10.05;;;2.55;;
71715;SDS011;59568;52.128;5.434;2023-10-08T03:59:39;8.93;;;2.65;;
71715;SDS011;59568;52.128;5.434;2023-10-08T04:02:09;7.63;;;2.88;;
71715;SDS011;59568;52.128;5.434;2023-10-08T04:04:50;11.70;;;3.90;;
71715;SDS011;59568;52.128;5.434;2023-10-08T04:07:24;10.27;;;3.23;;
71715;SDS011;59568;52.128;5.434;2023-10-08T04:10:27;11.73;;;3.38;;
71715;SDS011;59568;52.128;5.434;2023-10-08T04:13:16;11.68;;;3.00;;
71715;SDS011;59568;52.128;5.434;2023-10-08T04:15:43;13.35;;;3.50;;
71715;SDS011;59568;52.128;5.434;2023-10-08T04:18:11;6.32;;;2.53;;
71715;SDS011;59568;52.128;5.434;2023-10-08T04:20:39;10.70;;;2.67;;
71715;SDS011;59568;52.128;5.434;2023-10-08T04:23:25;9.23;;;2.28;;
71715;SDS011;59568;52.128;5.434;2023-10-08T04:25:53;9.57;;;2.80;;
71715;SDS011;59568;52.128;5.434;2023-10-08T04:28:23;12.65;;;3.13;;
71715;SDS011;59568;52.128;5.434;2023-10-08T04:30:55;6.88;;;2.47;;
71715;SDS011;59568;52.128;5.434;2023-10-08T04:33:43;6.43;;;1.73;;
71715;SDS011;59568;52.128;5.434;2023-10-08T04:36:11;10.55;;;2.15;;
71715;SDS011;59568;52.128;5.434;2023-10-08T04:38:44;13.23;;;2.15;;
71715;SDS011;59568;52.128;5.434;2023-10-08T04:41:14;9.50;;;2.10;;
71715;SDS011;59568;52.128;5.434;2023-10-08T04:43:46;7.60;;;1.40;;
71715;SDS011;59568;52.128;5.434;2023-10-08T04:46:16;8.20;;;2.10;;
71715;SDS011;59568;52.128;5.434;2023-10-08T04:48:46;6.82;;;1.70;;
71715;SDS011;59568;52.128;5.434;2023-10-08T04:51:13;8.20;;;1.83;;
71715;SDS011;59568;52.128;5.434;2023-10-08T04:53:40;7.28;;;1.73;;
71715;SDS011;59568;52.128;5.434;2023-10-08T04:56:11;9.55;;;2.30;;
71715;SDS011;59568;52.128;5.434;2023-10-08T04:58:46;10.40;;;2.40;;
71715;SDS011;59568;52.128;5.434;2023-10-08T05:01:14;6.47;;;1.67;;
71715;SDS011;59568;52.128;5.434;2023-10-08T05:04:05;9.07;;;1.80;;
71715;SDS011;59568;52.128;5.434;2023-10-08T05:06:33;10.52;;;2.00;;
71715;SDS011;59568;52.128;5.434;2023-10-08T05:09:08;9.50;;;1.77;;
71715;SDS011;59568;52.128;5.434;2023-10-08T05:11:37;7.50;;;1.33;;
71715;SDS011;59568;52.128;5.434;2023-10-08T05:17:07;8.30;;;1.75;;
71715;SDS011;59568;52.128;5.434;2023-10-08T05:19:44;7.60;;;1.92;;
71715;SDS011;59568;52.128;5.434;2023-10-08T05:22:15;12.98;;;2.95;;
71715;SDS011;59568;52.128;5.434;2023-10-08T05:25:04;9.80;;;2.30;;
71715;SDS011;59568;52.128;5.434;2023-10-08T05:27:35;9.15;;;2.05;;
71715;SDS011;59568;52.128;5.434;2023-10-08T05:30:05;6.35;;;2.03;;
71715;SDS011;59568;52.128;5.434;2023-10-08T05:32:58;5.43;;;1.25;;
71715;SDS011;59568;52.128;5.434;2023-10-08T05:35:41;7.18;;;1.80;;
71715;SDS011;59568;52.128;5.434;2023-10-08T05:38:13;9.33;;;1.67;;
71715;SDS011;59568;52.128;5.434;2023-10-08T05:40:57;5.28;;;1.15;;
71715;SDS011;59568;52.128;5.434;2023-10-08T05:43:28;6.25;;;1.35;;
71715;SDS011;59568;52.128;5.434;2023-10-08T05:46:11;7.30;;;1.20;;
71715;SDS011;59568;52.128;5.434;2023-10-08T05:48:48;4.57;;;1.00;;
71715;SDS011;59568;52.128;5.434;2023-10-08T05:51:29;4.07;;;0.90;;
71715;SDS011;59568;52.128;5.434;2023-10-08T05:54:16;2.90;;;0.82;;
71715;SDS011;59568;52.128;5.434;2023-10-08T05:59:36;2.95;;;0.95;;
71715;SDS011;59568;52.128;5.434;2023-10-08T06:02:23;2.45;;;0.70;;
71715;SDS011;59568;52.128;5.434;2023-10-08T06:05:01;2.90;;;0.30;;
71715;SDS011;59568;52.128;5.434;2023-10-08T06:07:48;2.15;;;0.50;;
71715;SDS011;59568;52.128;5.434;2023-10-08T06:10:26;3.92;;;0.40;;
71715;SDS011;59568;52.128;5.434;2023-10-08T06:12:59;1.83;;;0.47;;
71715;SDS011;59568;52.128;5.434;2023-10-08T06:15:40;4.85;;;0.73;;
71715;SDS011;59568;52.128;5.434;2023-10-08T06:18:15;3.07;;;0.83;;
71715;SDS011;59568;52.128;5.434;2023-10-08T06:20:46;4.72;;;0.55;;
71715;SDS011;59568;52.128;5.434;2023-10-08T06:23:14;2.95;;;0.55;;
71715;SDS011;59568;52.128;5.434;2023-10-08T06:25:52;1.63;;;0.47;;
71715;SDS011;59568;52.128;5.434;2023-10-08T06:28:32;3.00;;;0.63;;
71715;SDS011;59568;52.128;5.434;2023-10-08T06:31:02;5.67;;;0.73;;
71715;SDS011;59568;52.128;5.434;2023-10-08T06:33:39;4.35;;;0.95;;
71715;SDS011;59568;52.128;5.434;2023-10-08T06:36:08;1.67;;;0.45;;
71715;SDS011;59568;52.128;5.434;2023-10-08T06:38:49;1.63;;;0.30;;
71715;SDS011;59568;52.128;5.434;2023-10-08T06:41:16;3.45;;;0.38;;
71715;SDS011;59568;52.128;5.434;2023-10-08T06:44:06;2.90;;;0.53;;
71715;SDS011;59568;52.128;5.434;2023-10-08T06:46:41;3.95;;;0.43;;
71715;SDS011;59568;52.128;5.434;2023-10-08T06:49:09;2.22;;;0.60;;
71715;SDS011;59568;52.128;5.434;2023-10-08T06:51:41;3.97;;;0.65;;
71715;SDS011;59568;52.128;5.434;2023-10-08T06:54:10;1.55;;;0.70;;
71715;SDS011;59568;52.128;5.434;2023-10-08T06:56:41;1.93;;;0.57;;
71715;SDS011;59568;52.128;5.434;2023-10-08T06:59:13;3.70;;;0.63;;
71715;SDS011;59568;52.128;5.434;2023-10-08T07:01:41;2.42;;;0.47;;
71715;SDS011;59568;52.128;5.434;2023-10-08T07:04:13;1.75;;;0.45;;
71715;SDS011;59568;52.128;5.434;2023-10-08T07:06:41;1.50;;;0.50;;
71715;SDS011;59568;52.128;5.434;2023-10-08T07:09:10;1.67;;;0.50;;
71715;SDS011;59568;52.128;5.434;2023-10-08T07:11:56;2.88;;;0.32;;
71715;SDS011;59568;52.128;5.434;2023-10-08T07:14:25;1.30;;;0.57;;
71715;SDS011;59568;52.128;5.434;2023-10-08T07:16:59;2.22;;;0.80;;
71715;SDS011;59568;52.128;5.434;2023-10-08T07:19:28;3.20;;;0.77;;
71715;SDS011;59568;52.128;5.434;2023-10-08T07:22:08;0.97;;;0.50;;
71715;SDS011;59568;52.128;5.434;2023-10-08T07:24:49;1.73;;;0.43;;
71715;SDS011;59568;52.128;5.434;2023-10-08T07:27:20;2.33;;;0.70;;
71715;SDS011;59568;52.128;5.434;2023-10-08T07:29:57;2.25;;;0.52;;
71715;SDS011;59568;52.128;5.434;2023-10-08T07:32:27;3.45;;;0.93;;
71715;SDS011;59568;52.128;5.434;2023-10-08T07:34:57;2.20;;;0.90;;
71715;SDS011;59568;52.128;5.434;2023-10-08T07:37:42;2.58;;;0.60;;
71715;SDS011;59568;52.128;5.434;2023-10-08T07:40:10;1.58;;;0.50;;
71715;SDS011;59568;52.128;5.434;2023-10-08T07:42:38;2.58;;;0.98;;
71715;SDS011;59568;52.128;5.434;2023-10-08T07:45:05;1.95;;;0.70;;
71715;SDS011;59568;52.128;5.434;2023-10-08T07:47:33;2.03;;;0.77;;
71715;SDS011;59568;52.128;5.434;2023-10-08T07:50:00;1.95;;;0.73;;
71715;SDS011;59568;52.128;5.434;2023-10-08T07:52:27;2.97;;;1.20;;
71715;SDS011;59568;52.128;5.434;2023-10-08T07:54:55;2.65;;;0.82;;
71715;SDS011;59568;52.128;5.434;2023-10-08T07:57:22;4.82;;;1.10;;
71715;SDS011;59568;52.128;5.434;2023-10-08T07:59:53;6.17;;;1.30;;
71715;SDS011;59568;52.128;5.434;2023-10-08T08:02:28;3.63;;;1.25;;
71715;SDS011;59568;52.128;5.434;2023-10-08T08:04:55;3.60;;;1.52;;
71715;SDS011;59568;52.128;5.434;2023-10-08T08:07:23;1.88;;;0.80;;
71715;SDS011;59568;52.128;5.434;2023-10-08T08:09:52;3.20;;;1.52;;
71715;SDS011;59568;52.128;5.434;2023-10-08T08:12:27;3.20;;;1.20;;
71715;SDS011;59568;52.128;5.434;2023-10-08T08:14:55;3.85;;;1.30;;
71715;SDS011;59568;52.128;5.434;2023-10-08T08:17:22;1.83;;;0.80;;
71715;SDS011;59568;52.128;5.434;2023-10-08T08:19:50;2.55;;;1.05;;
71715;SDS011;59568;52.128;5.434;2023-10-08T08:22:21;2.28;;;0.98;;
71715;SDS011;59568;52.128;5.434;2023-10-08T08:24:50;2.60;;;0.93;;
71715;SDS011;59568;52.128;5.434;2023-10-08T08:27:43;2.03;;;0.70;;
71715;SDS011;59568;52.128;5.434;2023-10-08T08:30:15;1.90;;;1.00;;
71715;SDS011;59568;52.128;5.434;2023-10-08T08:32:44;2.55;;;0.93;;
71715;SDS011;59568;52.128;5.434;2023-10-08T08:35:18;2.47;;;0.93;;
71715;SDS011;59568;52.128;5.434;2023-10-08T08:37:47;2.70;;;0.80;;
71715;SDS011;59568;52.128;5.434;2023-10-08T08:40:19;3.22;;;0.90;;
71715;SDS011;59568;52.128;5.434;2023-10-08T08:42:51;3.92;;;1.20;;
71715;SDS011;59568;52.128;5.434;2023-10-08T08:45:25;2.53;;;0.80;;
71715;SDS011;59568;52.128;5.434;2023-10-08T08:47:53;2.05;;;0.68;;
71715;SDS011;59568;52.128;5.434;2023-10-08T08:50:22;2.30;;;0.93;;
71715;SDS011;59568;52.128;5.434;2023-10-08T08:52:50;1.65;;;0.85;;
71715;SDS011;59568;52.128;5.434;2023-10-08T08:55:18;2.20;;;0.95;;
71715;SDS011;59568;52.128;5.434;2023-10-08T08:57:48;4.80;;;0.90;;
71715;SDS011;59568;52.128;5.434;2023-10-08T09:00:18;4.22;;;0.70;;
71715;SDS011;59568;52.128;5.434;2023-10-08T09:02:46;2.37;;;0.80;;
71715;SDS011;59568;52.128;5.434;2023-10-08T09:05:15;2.50;;;0.90;;
71715;SDS011;59568;52.128;5.434;2023-10-08T09:08:01;3.55;;;0.63;;
71715;SDS011;59568;52.128;5.434;2023-10-08T09:10:38;2.72;;;0.85;;
71715;SDS011;59568;52.128;5.434;2023-10-08T09:13:21;3.13;;;1.10;;
71715;SDS011;59568;52.128;5.434;2023-10-08T09:15:50;3.00;;;0.80;;
71715;SDS011;59568;52.128;5.434;2023-10-08T09:18:21;1.50;;;0.60;;
71715;SDS011;59568;52.128;5.434;2023-10-08T09:20:49;4.07;;;0.95;;
71715;SDS011;59568;52.128;5.434;2023-10-08T09:23:16;2.40;;;0.80;;
71715;SDS011;59568;52.128;5.434;2023-10-08T09:25:49;4.05;;;1.10;;
71715;SDS011;59568;52.128;5.434;2023-10-08T09:28:30;2.90;;;0.77;;
71715;SDS011;59568;52.128;5.434;2023-10-08T09:30:59;2.38;;;0.70;;
71715;SDS011;59568;52.128;5.434;2023-10-08T09:33:27;2.88;;;1.25;;
71715;SDS011;59568;52.128;5.434;2023-10-08T09:35:55;2.90;;;0.90;;
71715;SDS011;59568;52.128;5.434;2023-10-08T09:38:29;4.13;;;1.23;;
71715;SDS011;59568;52.128;5.434;2023-10-08T09:40:58;2.13;;;0.70;;
71715;SDS011;59568;52.128;5.434;2023-10-08T09:43:29;2.53;;;1.00;;
71715;SDS011;59568;52.128;5.434;2023-10-08T09:46:19;2.72;;;1.10;;
71715;SDS011;59568;52.128;5.434;2023-10-08T09:48:49;3.35;;;0.90;;
71715;SDS011;59568;52.128;5.434;2023-10-08T09:51:20;2.72;;;0.80;;
71715;SDS011;59568;52.128;5.434;2023-10-08T09:56:20;2.17;;;0.88;;
71715;SDS011;59568;52.128;5.434;2023-10-08T09:58:49;3.78;;;0.90;;
71715;SDS011;59568;52.128;5.434;2023-10-08T10:01:17;2.67;;;1.13;;
71715;SDS011;59568;52.128;5.434;2023-10-08T10:03:46;2.80;;;1.10;;
71715;SDS011;59568;52.128;5.434;2023-10-08T10:06:15;2.93;;;1.07;;
71715;SDS011;59568;52.128;5.434;2023-10-08T10:08:44;2.65;;;1.17;;
71715;SDS011;59568;52.128;5.434;2023-10-08T10:11:12;2.17;;;1.30;;
71715;SDS011;59568;52.128;5.434;2023-10-08T10:13:42;2.70;;;1.20;;
71715;SDS011;59568;52.128;5.434;2023-10-08T10:16:17;2.72;;;1.25;;
71715;SDS011;59568;52.128;5.434;2023-10-08T10:18:49;5.73;;;1.23;;
71715;SDS011;59568;52.128;5.434;2023-10-08T10:23:44;3.13;;;1.23;;
71715;SDS011;59568;52.128;5.434;2023-10-08T10:31:42;2.50;;;1.20;;
71715;SDS011;59568;52.128;5.434;2023-10-08T10:34:14;2.15;;;1.45;;
71715;SDS011;59568;52.128;5.434;2023-10-08T10:36:46;4.00;;;1.70;;
71715;SDS011;59568;52.128;5.434;2023-10-08T10:39:18;3.03;;;1.40;;
71715;SDS011;59568;52.128;5.434;2023-10-08T10:41:59;3.38;;;1.40;;
71715;SDS011;59568;52.128;5.434;2023-10-08T10:44:29;4.00;;;1.40;;
71715;SDS011;59568;52.128;5.434;2023-10-08T10:46:58;4.93;;;1.70;;
71715;SDS011;59568;52.128;5.434;2023-10-08T10:49:47;4.13;;;1.73;;
71715;SDS011;59568;52.128;5.434;2023-10-08T10:52:41;3.45;;;1.90;;
71715;SDS011;59568;52.128;5.434;2023-10-08T10:55:13;3.42;;;1.70;;
71715;SDS011;59568;52.128;5.434;2023-10-08T10:57:41;4.67;;;1.97;;
71715;SDS011;59568;52.128;5.434;2023-10-08T11:00:24;2.83;;;1.55;;
71715;SDS011;59568;52.128;5.434;2023-10-08T11:03:01;4.53;;;2.05;;
71715;SDS011;59568;52.128;5.434;2023-10-08T11:05:34;2.85;;;1.65;;
71715;SDS011;59568;52.128;5.434;2023-10-08T11:08:05;3.83;;;1.95;;
71715;SDS011;59568;52.128;5.434;2023-10-08T11:10:36;3.57;;;2.07;;
71715;SDS011;59568;52.128;5.434;2023-10-08T11:13:13;3.60;;;1.90;;
71715;SDS011;59568;52.128;5.434;2023-10-08T11:15:44;4.18;;;1.77;;
71715;SDS011;59568;52.128;5.434;2023-10-08T11:18:17;4.32;;;1.80;;
71715;SDS011;59568;52.128;5.434;2023-10-08T11:20:46;3.30;;;1.80;;
71715;SDS011;59568;52.128;5.434;2023-10-08T11:23:37;3.73;;;1.57;;
71715;SDS011;59568;52.128;5.434;2023-10-08T11:26:08;4.43;;;2.08;;
71715;SDS011;59568;52.128;5.434;2023-10-08T11:28:36;4.53;;;1.80;;
71715;SDS011;59568;52.128;5.434;2023-10-08T11:31:12;4.13;;;1.70;;
71715;SDS011;59568;52.128;5.434;2023-10-08T11:33:47;3.88;;;2.00;;
71715;SDS011;59568;52.128;5.434;2023-10-08T11:36:23;5.33;;;1.70;;
71715;SDS011;59568;52.128;5.434;2023-10-08T11:39:11;5.22;;;2.33;;
71715;SDS011;59568;52.128;5.434;2023-10-08T11:41:54;4.82;;;1.98;;
71715;SDS011;59568;52.128;5.434;2023-10-08T11:44:44;4.65;;;2.17;;
71715;SDS011;59568;52.128;5.434;2023-10-08T11:47:11;5.53;;;1.48;;
71715;SDS011;59568;52.128;5.434;2023-10-08T11:49:39;3.10;;;1.47;;
71715;SDS011;59568;52.128;5.434;2023-10-08T11:52:14;3.50;;;1.67;;
71715;SDS011;59568;52.128;5.434;2023-10-08T11:54:48;3.60;;;1.17;;
71715;SDS011;59568;52.128;5.434;2023-10-08T11:57:18;3.80;;;1.52;;
71715;SDS011;59568;52.128;5.434;2023-10-08T11:59:49;3.92;;;1.40;;
71715;SDS011;59568;52.128;5.434;2023-10-08T12:02:22;3.83;;;1.17;;
71715;SDS011;59568;52.128;5.434;2023-10-08T12:04:49;2.78;;;1.20;;
71715;SDS011;59568;52.128;5.434;2023-10-08T12:07:16;2.85;;;1.33;;
71715;SDS011;59568;52.128;5.434;2023-10-08T12:09:44;4.32;;;1.40;;
71715;SDS011;59568;52.128;5.434;2023-10-08T12:12:15;4.20;;;1.10;;
71715;SDS011;59568;52.128;5.434;2023-10-08T12:14:47;2.77;;;0.93;;
71715;SDS011;59568;52.128;5.434;2023-10-08T12:17:16;3.45;;;1.15;;
71715;SDS011;59568;52.128;5.434;2023-10-08T12:19:44;3.05;;;1.25;;
71715;SDS011;59568;52.128;5.434;2023-10-08T12:22:11;6.22;;;1.08;;
71715;SDS011;59568;52.128;5.434;2023-10-08T12:24:44;2.97;;;0.90;;
71715;SDS011;59568;52.128;5.434;2023-10-08T12:27:11;2.50;;;1.03;;
71715;SDS011;59568;52.128;5.434;2023-10-08T12:29:39;4.32;;;1.25;;
71715;SDS011;59568;52.128;5.434;2023-10-08T12:32:06;3.28;;;1.02;;
71715;SDS011;59568;52.128;5.434;2023-10-08T12:34:44;3.65;;;0.98;;
71715;SDS011;59568;52.128;5.434;2023-10-08T12:37:11;3.65;;;1.13;;
71715;SDS011;59568;52.128;5.434;2023-10-08T12:39:41;2.90;;;0.80;;
71715;SDS011;59568;52.128;5.434;2023-10-08T12:42:20;4.00;;;1.02;;
71715;SDS011;59568;52.128;5.434;2023-10-08T12:44:47;3.85;;;0.80;;
71715;SDS011;59568;52.128;5.434;2023-10-08T12:47:15;2.58;;;0.90;;
71715;SDS011;59568;52.128;5.434;2023-10-08T12:49:42;1.98;;;0.80;;
71715;SDS011;59568;52.128;5.434;2023-10-08T12:52:13;3.93;;;0.83;;
71715;SDS011;59568;52.128;5.434;2023-10-08T12:54:41;3.10;;;0.63;;
71715;SDS011;59568;52.128;5.434;2023-10-08T12:57:12;1.42;;;0.50;;
71715;SDS011;59568;52.128;5.434;2023-10-08T12:59:42;2.45;;;0.52;;
71715;SDS011;59568;52.128;5.434;2023-10-08T13:02:14;1.98;;;0.57;;
71715;SDS011;59568;52.128;5.434;2023-10-08T13:04:43;2.23;;;0.50;;
71715;SDS011;59568;52.128;5.434;2023-10-08T13:07:12;2.35;;;0.45;;
71715;SDS011;59568;52.128;5.434;2023-10-08T13:09:40;3.58;;;0.70;;
71715;SDS011;59568;52.128;5.434;2023-10-08T13:12:09;2.03;;;0.30;;
71715;SDS011;59568;52.128;5.434;2023-10-08T13:14:37;2.67;;;0.55;;
71715;SDS011;59568;52.128;5.434;2023-10-08T13:17:04;2.63;;;0.50;;
71715;SDS011;59568;52.128;5.434;2023-10-08T13:19:31;2.05;;;0.40;;
71715;SDS011;59568;52.128;5.434;2023-10-08T13:22:01;2.53;;;0.38;;
71715;SDS011;59568;52.128;5.434;2023-10-08T13:24:30;2.63;;;0.45;;
71715;SDS011;59568;52.128;5.434;2023-10-08T13:26:57;1.90;;;0.68;;
71715;SDS011;59568;52.128;5.434;2023-10-08T13:29:25;2.50;;;0.33;;
71715;SDS011;59568;52.128;5.434;2023-10-08T13:31:53;1.20;;;0.70;;
71715;SDS011;59568;52.128;5.434;2023-10-08T13:34:21;2.08;;;0.50;;
71715;SDS011;59568;52.128;5.434;2023-10-08T13:36:48;1.10;;;0.40;;
71715;SDS011;59568;52.128;5.434;2023-10-08T13:39:16;2.85;;;0.50;;
71715;SDS011;59568;52.128;5.434;2023-10-08T13:41:45;3.17;;;0.77;;
71715;SDS011;59568;52.128;5.434;2023-10-08T13:44:16;2.75;;;0.73;;
71715;SDS011;59568;52.128;5.434;2023-10-08T13:46:45;2.30;;;0.70;;
71715;SDS011;59568;52.128;5.434;2023-10-08T13:49:17;2.83;;;1.00;;
71715;SDS011;59568;52.128;5.434;2023-10-08T13:51:45;3.10;;;0.85;;
71715;SDS011;59568;52.128;5.434;2023-10-08T13:54:16;3.27;;;1.00;;
71715;SDS011;59568;52.128;5.434;2023-10-08T13:56:44;2.40;;;1.10;;
71715;SDS011;59568;52.128;5.434;2023-10-08T13:59:15;3.65;;;0.90;;
71715;SDS011;59568;52.128;5.434;2023-10-08T14:01:45;3.90;;;0.80;;
71715;SDS011;59568;52.128;5.434;2023-10-08T14:04:13;2.45;;;0.75;;
71715;SDS011;59568;52.128;5.434;2023-10-08T14:06:45;2.37;;;0.77;;
71715;SDS011;59568;52.128;5.434;2023-10-08T14:09:19;2.05;;;0.93;;
71715;SDS011;59568;52.128;5.434;2023-10-08T14:11:48;5.25;;;1.00;;
71715;SDS011;59568;52.128;5.434;2023-10-08T14:14:17;3.13;;;0.75;;
71715;SDS011;59568;52.128;5.434;2023-10-08T14:16:46;2.63;;;0.90;;
71715;SDS011;59568;52.128;5.434;2023-10-08T14:19:20;4.20;;;0.93;;
71715;SDS011;59568;52.128;5.434;2023-10-08T14:21:55;2.10;;;0.80;;
71715;SDS011;59568;52.128;5.434;2023-10-08T14:24:30;2.40;;;0.73;;
71715;SDS011;59568;52.128;5.434;2023-10-08T14:27:05;3.78;;;1.27;;
71715;SDS011;59568;52.128;5.434;2023-10-08T14:29:42;2.35;;;1.02;;
71715;SDS011;59568;52.128;5.434;2023-10-08T14:32:17;3.27;;;1.40;;
71715;SDS011;59568;52.128;5.434;2023-10-08T14:34:44;4.15;;;1.17;;
71715;SDS011;59568;52.128;5.434;2023-10-08T14:37:14;2.60;;;0.90;;
71715;SDS011;59568;52.128;5.434;2023-10-08T14:40:00;3.35;;;1.00;;
71715;SDS011;59568;52.128;5.434;2023-10-08T14:42:46;3.17;;;1.00;;
71715;SDS011;59568;52.128;5.434;2023-10-08T14:45:27;2.53;;;0.90;;
71715;SDS011;59568;52.128;5.434;2023-10-08T14:47:58;2.78;;;0.82;;
71715;SDS011;59568;52.128;5.434;2023-10-08T14:50:26;3.47;;;0.80;;
71715;SDS011;59568;52.128;5.434;2023-10-08T14:52:54;4.30;;;1.40;;
71715;SDS011;59568;52.128;5.434;2023-10-08T14:55:22;2.83;;;1.25;;
71715;SDS011;59568;52.128;5.434;2023-10-08T14:57:50;4.20;;;0.97;;
71715;SDS011;59568;52.128;5.434;2023-10-08T15:00:20;2.78;;;1.40;;
71715;SDS011;59568;52.128;5.434;2023-10-08T15:02:53;3.83;;;0.90;;
71715;SDS011;59568;52.128;5.434;2023-10-08T15:05:21;1.95;;;1.17;;
71715;SDS011;59568;52.128;5.434;2023-10-08T15:07:52;3.58;;;1.30;;
71715;SDS011;59568;52.128;5.434;2023-10-08T15:10:19;4.57;;;0.87;;
71715;SDS011;59568;52.128;5.434;2023-10-08T15:12:50;4.40;;;1.30;;
71715;SDS011;59568;52.128;5.434;2023-10-08T15:15:19;2.47;;;0.82;;
71715;SDS011;59568;52.128;5.434;2023-10-08T15:17:47;4.15;;;1.20;;
71715;SDS011;59568;52.128;5.434;2023-10-08T15:20:16;4.50;;;0.90;;
71715;SDS011;59568;52.128;5.434;2023-10-08T15:22:44;4.97;;;1.20;;
71715;SDS011;59568;52.128;5.434;2023-10-08T15:25:13;2.58;;;0.95;;
71715;SDS011;59568;52.128;5.434;2023-10-08T15:27:44;2.30;;;0.90;;
71715;SDS011;59568;52.128;5.434;2023-10-08T15:30:13;4.53;;;1.77;;
71715;SDS011;59568;52.128;5.434;2023-10-08T15:32:43;4.25;;;1.38;;